Time;durP1;ratioP1;P1;durP2;ratioP2;P2;SDS_P1;SDS_P2;PMS_P1;PMS_P2;Temp;Humidity;BMP_temperature;BMP_pressure;BME280_temperature;BME280_humidity;BME280_pressure;Samples;Min_cycle;Max_cycle;Signal;HPM_P1;HPM_P2
2022/01/03 00:00:17;;;;;;;;;5.25;3.50;;;;;12.83;69.30;101249.81;5002070;28;45288;-76
2022/01/03 00:02:44;;;;;;;;;2.00;1.00;;;;;12.84;68.97;101254.22;5019472;28;45412;-77
2022/01/03 00:05:10;;;;;;;;;5.00;1.75;;;;;12.85;69.05;101261.31;5020246;28;45432;-79
2022/01/03 00:07:41;;;;;;;;;4.00;1.50;;;;;12.85;69.49;101258.66;5019200;28;45502;-76
2022/01/03 00:10:09;;;;;;;;;6.00;2.00;;;;;12.83;69.13;101258.63;5019874;28;45244;-80
2022/01/03 00:12:35;;;;;;;;;3.50;1.75;;;;;12.76;69.49;101240.09;5001981;28;45341;-74
2022/01/03 00:15:02;;;;;;;;;5.50;3.00;;;;;12.85;68.97;101258.66;5019912;28;45308;-79
2022/01/03 00:17:28;;;;;;;;;6.25;3.00;;;;;12.77;68.70;101258.59;5019132;28;47125;-77
2022/01/03 00:19:53;;;;;;;;;5.00;5.00;;;;;12.64;69.45;101224.13;5019627;28;45381;-79
2022/01/03 00:22:22;;;;;;;;;7.00;5.00;;;;;12.73;69.97;101253.28;5019885;28;45251;-78
2022/01/03 00:25:01;;;;;;;;;3.75;3.75;;;;;12.68;70.01;101262.94;5019683;28;45295;-77
2022/01/03 00:27:44;;;;;;;;;0.75;0.75;;;;;12.70;69.59;101258.56;5019315;28;45471;-80
2022/01/03 00:30:11;;;;;;;;;2.00;1.75;;;;;12.58;69.30;101246.13;5019469;28;45427;-79
2022/01/03 00:32:38;;;;;;;;;8.75;3.00;;;;;12.61;70.10;101261.13;5018864;28;45323;-77
2022/01/03 00:35:05;;;;;;;;;3.25;1.00;;;;;12.58;70.07;101261.13;5019958;28;45225;-80
2022/01/03 00:37:35;;;;;;;;;4.00;3.00;;;;;12.49;69.85;101256.63;5018342;28;45542;-78
2022/01/03 00:40:00;;;;;;;;;3.50;1.00;;;;;12.56;69.93;101276.94;5019291;28;45285;-75
2022/01/03 00:42:26;;;;;;;;;7.75;3.75;;;;;12.58;69.96;101269.94;5019408;28;45404;-76
2022/01/03 00:44:52;;;;;;;;;4.50;2.00;;;;;12.51;69.95;101268.09;5019123;28;45409;-78
2022/01/03 00:47:18;;;;;;;;;5.00;3.00;;;;;12.57;70.18;101288.41;5019099;28;45327;-77
2022/01/03 00:49:44;;;;;;;;;9.25;3.50;;;;;12.55;69.83;101272.53;5018892;28;45854;-76
2022/01/03 00:52:10;;;;;;;;;4.50;3.00;;;;;12.53;69.91;101264.59;5019316;28;45380;-78
2022/01/03 00:54:36;;;;;;;;;5.00;3.00;;;;;12.56;70.40;101266.34;5019455;28;45277;-77
2022/01/03 00:57:17;;;;;;;;;3.25;1.75;;;;;12.49;69.79;101251.34;5018606;28;46141;-78
2022/01/03 00:59:51;;;;;;;;;3.50;2.00;;;;;12.47;69.71;101261.91;5018884;28;45366;-77
2022/01/03 01:02:18;;;;;;;;;5.75;2.75;;;;;12.58;70.39;101271.69;5018692;28;45371;-78
2022/01/03 01:04:45;;;;;;;;;7.25;1.75;;;;;12.48;70.51;101261.03;5018257;28;45438;-78
2022/01/03 01:07:11;;;;;;;;;1.50;1.50;;;;;12.54;70.60;101257.53;5018790;28;45495;-79
2022/01/03 01:09:37;;;;;;;;;5.00;2.00;;;;;12.52;70.47;101278.69;5018113;28;45437;-78
2022/01/03 01:12:06;;;;;;;;;2.25;1.00;;;;;12.38;70.70;101260.97;5019289;28;45379;-77
2022/01/03 01:14:31;;;;;;;;;4.25;1.75;;;;;12.46;70.87;101277.72;5019232;28;45294;-79
2022/01/03 01:16:57;;;;;;;;;5.25;3.25;;;;;12.32;70.52;101248.56;5018212;28;45747;-81
2022/01/03 01:19:26;;;;;;;;;1.00;1.00;;;;;12.41;70.63;101268.91;5017823;28;45340;-80
2022/01/03 01:21:52;;;;;;;;;5.75;1.50;;;;;12.37;71.40;101267.97;5018984;28;45241;-79
2022/01/03 01:24:21;;;;;;;;;6.25;3.00;;;;;12.28;71.23;101257.31;5018715;28;45517;-80
2022/01/03 01:29:31;;;;;;;;;6.25;1.50;;;;;12.17;71.18;101238.75;5017779;28;45375;-79
2022/01/03 01:32:01;;;;;;;;;4.00;2.50;;;;;12.20;70.81;101237.91;5018557;28;45408;-79
2022/01/03 01:34:29;;;;;;;;;3.75;3.75;;;;;12.31;71.77;101261.78;5000759;28;45471;-79
2022/01/03 01:36:58;;;;;;;;;3.75;3.00;;;;;12.28;71.49;101246.75;5017719;28;45514;-78
2022/01/03 01:39:27;;;;;;;;;1.75;1.75;;;;;12.32;71.43;101259.13;5017884;28;45189;-78
2022/01/03 01:42:00;;;;;;;;;2.75;2.00;;;;;12.32;71.52;101248.56;5018379;28;45295;-80
2022/01/03 01:44:26;;;;;;;;;9.75;4.50;;;;;12.19;71.73;101237.03;5018240;28;45411;-77
2022/01/03 01:46:55;;;;;;;;;3.00;1.50;;;;;12.28;71.77;101259.97;5018244;28;45314;-78
2022/01/03 01:49:24;;;;;;;;;7.50;3.75;;;;;12.11;70.95;101217.59;5017407;28;45489;-79
2022/01/03 01:51:58;;;;;;;;;5.00;2.25;;;;;12.18;71.78;101237.88;5017464;28;45309;-75
2022/01/03 01:54:31;;;;;;;;;2.00;2.00;;;;;12.26;71.37;101243.22;5018281;28;45427;-76
2022/01/03 01:57:08;;;;;;;;;3.00;3.00;;;;;12.16;71.76;101234.34;5017724;28;46174;-79
2022/01/03 02:00:07;;;;;;;;;4.25;1.50;;;;;12.23;71.19;101240.56;5017190;28;45328;-79
2022/01/03 02:02:56;;;;;;;;;2.50;2.50;;;;;12.17;71.59;101233.47;5018070;28;45398;-79
2022/01/03 02:05:37;;;;;;;;;2.25;1.75;;;;;12.19;71.64;101242.31;4998510;28;45246;-77
2022/01/03 02:08:31;;;;;;;;;4.00;2.00;;;;;12.16;71.53;101246.66;4998140;28;46205;-81
2022/01/03 02:11:03;;;;;;;;;1.50;1.50;;;;;12.13;72.24;101246.63;4997456;28;45218;-80
2022/01/03 02:13:28;;;;;;;;;1.75;1.75;;;;;12.03;72.09;101236.88;4998174;28;45332;-79
2022/01/03 02:16:03;;;;;;;;;5.25;4.25;;;;;12.09;72.26;101247.47;4998034;28;45476;-78
2022/01/03 02:18:30;;;;;;;;;2.75;2.25;;;;;12.11;71.64;101256.31;4997660;28;45384;-79
2022/01/03 02:20:55;;;;;;;;;4.25;3.25;;;;;12.09;71.90;101251.00;4997351;28;45265;-79
2022/01/03 02:23:21;;;;;;;;;8.25;3.00;;;;;12.02;72.02;101233.34;4998044;28;45380;-79
2022/01/03 02:25:47;;;;;;;;;5.25;3.00;;;;;12.08;71.86;101241.31;5013915;28;45222;-79
2022/01/03 02:28:12;;;;;;;;;3.00;2.00;;;;;11.89;72.34;101213.84;5017198;28;47399;-78
2022/01/03 02:30:38;;;;;;;;;3.25;2.75;;;;;11.88;72.63;101222.63;5016708;28;45459;-77
2022/01/03 02:33:04;;;;;;;;;2.25;1.00;;;;;11.91;71.72;101225.31;5017275;28;45439;-77
2022/01/03 02:35:33;;;;;;;;;3.75;2.50;;;;;12.09;72.09;101265.94;5017809;28;45247;-81
2022/01/03 02:37:59;;;;;;;;;2.75;1.25;;;;;11.98;71.65;101248.25;5017054;28;46462;-80
2022/01/03 02:40:24;;;;;;;;;1.25;1.25;;;;;12.07;72.47;101260.66;5016890;28;45386;-76
2022/01/03 02:42:50;;;;;;;;;7.00;3.00;;;;;12.07;72.18;101257.13;5017478;28;45797;-77
2022/01/03 02:45:22;;;;;;;;;3.00;1.75;;;;;12.19;71.75;101268.72;5017809;28;45306;-76
2022/01/03 02:47:51;;;;;;;;;8.50;2.75;;;;;12.21;71.59;101264.34;5017369;28;45631;-77
2022/01/03 02:50:18;;;;;;;;;3.25;2.75;;;;;12.19;72.06;101251.97;5016933;28;45258;-79
2022/01/03 02:52:44;;;;;;;;;9.25;4.00;;;;;12.25;71.61;101254.66;5016109;28;45430;-79
2022/01/03 02:55:11;;;;;;;;;3.00;2.00;;;;;12.17;72.19;101246.66;5017958;28;45360;-80
2022/01/03 02:57:38;;;;;;;;;1.00;1.00;;;;;12.27;72.19;101271.41;5017276;28;46559;-79
2022/01/03 03:00:08;;;;;;;;;6.25;3.50;;;;;12.25;72.37;101266.13;5017280;28;45287;-79
2022/01/03 03:02:33;;;;;;;;;5.25;2.00;;;;;12.24;71.38;101255.53;5015328;28;45497;-76
2022/01/03 03:05:01;;;;;;;;;3.75;2.00;;;;;12.21;71.98;101253.75;5017121;28;45391;-79
2022/01/03 03:07:30;;;;;;;;;8.25;1.00;;;;;12.15;71.83;101236.97;5016862;28;46391;-77
2022/01/03 03:09:57;;;;;;;;;3.75;3.75;;;;;12.03;72.35;101207.81;5016379;28;45336;-77
2022/01/03 03:12:23;;;;;;;;;2.00;1.25;;;;;12.21;71.60;101237.91;5016577;28;45346;-78
2022/01/03 03:14:50;;;;;;;;;8.50;2.00;;;;;12.17;72.22;101230.81;5017077;28;45410;-81
2022/01/03 03:17:19;;;;;;;;;4.50;4.00;;;;;12.21;72.13;101222.06;5016822;28;45325;-78
2022/01/03 03:19:59;;;;;;;;;3.00;2.00;;;;;12.08;72.40;101208.72;5016777;28;45356;-77
2022/01/03 03:22:27;;;;;;;;;3.75;3.00;;;;;12.16;72.06;101214.97;5016952;28;45385;-76
2022/01/03 03:24:59;;;;;;;;;9.25;6.50;;;;;12.08;71.91;101209.59;5017111;28;45350;-76
2022/01/03 03:27:25;;;;;;;;;3.75;3.00;;;;;12.16;71.84;101222.88;5016734;28;45438;-79
2022/01/03 03:29:51;;;;;;;;;4.75;4.50;;;;;12.24;72.25;101231.75;5016715;28;45308;-75
2022/01/03 03:32:18;;;;;;;;;7.50;4.00;;;;;12.23;71.59;101236.16;5016418;28;45385;-78
2022/01/03 03:34:46;;;;;;;;;4.00;2.00;;;;;12.15;71.55;101215.84;4998950;28;45178;-79
2022/01/03 03:37:12;;;;;;;;;7.25;3.00;;;;;12.21;71.88;101230.00;5016123;28;46117;-79
2022/01/03 03:39:39;;;;;;;;;3.75;3.25;;;;;12.18;72.11;101223.78;5016718;28;45309;-76
2022/01/03 03:42:06;;;;;;;;;2.00;2.00;;;;;12.27;71.94;101231.78;5016364;28;45384;-78
2022/01/03 03:44:32;;;;;;;;;2.00;1.50;;;;;12.30;71.85;101228.31;5016836;28;45316;-76
2022/01/03 03:46:58;;;;;;;;;2.00;1.00;;;;;12.22;71.68;101215.03;5016506;28;45386;-81
2022/01/03 03:49:23;;;;;;;;;6.00;1.75;;;;;12.30;71.07;101221.25;5015873;28;45220;-76
2022/01/03 03:51:49;;;;;;;;;2.00;1.50;;;;;12.27;71.75;101211.53;5016228;28;45338;-78
2022/01/03 03:54:14;;;;;;;;;5.75;2.00;;;;;12.35;70.73;101218.63;5016355;28;45310;-78
2022/01/03 03:56:40;;;;;;;;;4.50;2.50;;;;;12.40;71.17;101224.84;5016073;28;47106;-78
2022/01/03 03:59:05;;;;;;;;;10.75;4.50;;;;;12.39;71.36;101220.44;4998369;28;45410;-79
2022/01/03 04:01:30;;;;;;;;;9.00;4.50;;;;;12.36;71.09;101221.28;5015069;28;45580;-76
2022/01/03 04:03:56;;;;;;;;;4.00;1.00;;;;;12.33;71.43;101200.13;5015621;28;45223;-79
2022/01/03 04:06:21;;;;;;;;;2.75;1.50;;;;;12.43;71.45;101222.22;5016331;28;45629;-80
2022/01/03 04:08:46;;;;;;;;;2.25;1.75;;;;;12.49;70.79;101207.31;5015816;28;45402;-79
2022/01/03 04:11:15;;;;;;;;;2.00;2.00;;;;;12.52;71.29;101203.81;5016211;28;45732;-80
2022/01/03 04:13:41;;;;;;;;;8.00;2.75;;;;;12.47;71.02;101195.84;5016266;28;45445;-78
2022/01/03 04:16:07;;;;;;;;;4.50;2.00;;;;;12.41;71.26;101194.91;5019166;28;46118;-77
2022/01/03 04:18:33;;;;;;;;;4.75;1.50;;;;;12.29;71.93;101181.63;5019707;28;45519;-77
2022/01/03 04:20:59;;;;;;;;;3.25;2.25;;;;;12.30;71.78;101186.91;5018958;28;45233;-79
2022/01/03 04:23:25;;;;;;;;;3.50;2.50;;;;;12.28;72.38;101191.28;5019640;28;45339;-79
2022/01/03 04:25:53;;;;;;;;;3.75;2.50;;;;;12.32;71.82;101193.09;5018877;28;46200;-80
2022/01/03 04:28:20;;;;;;;;;3.00;2.50;;;;;12.27;71.93;101173.66;5018635;28;45341;-79
2022/01/03 04:30:45;;;;;;;;;8.00;1.50;;;;;12.30;72.21;101180.75;5019171;28;45300;-80
2022/01/03 04:33:11;;;;;;;;;2.75;2.00;;;;;12.27;72.05;101186.88;5019614;28;45407;-77
2022/01/03 04:35:37;;;;;;;;;3.00;2.00;;;;;12.26;72.32;101182.47;5018776;28;46337;-78
2022/01/03 04:38:03;;;;;;;;;6.25;3.00;;;;;12.21;73.03;101173.63;5019271;28;45320;-77
2022/01/03 04:40:29;;;;;;;;;3.50;1.25;;;;;12.20;72.63;101170.13;5019249;28;45294;-77
2022/01/03 04:42:54;;;;;;;;;5.75;3.25;;;;;12.07;73.18;101141.81;5019283;28;45284;-78
2022/01/03 04:45:20;;;;;;;;;6.00;1.00;;;;;12.14;72.37;101150.69;5018701;28;45464;-78
2022/01/03 04:47:45;;;;;;;;;2.00;2.00;;;;;12.14;72.34;101145.41;5019348;28;45225;-79
2022/01/03 04:50:11;;;;;;;;;3.00;2.00;;;;;12.15;72.91;101163.91;5018966;28;45316;-76
2022/01/03 04:52:36;;;;;;;;;3.25;3.25;;;;;12.12;72.45;101145.41;5019291;28;45581;-78
2022/01/03 04:55:03;;;;;;;;;4.75;1.50;;;;;12.20;72.26;101170.13;5018749;28;45611;-78
2022/01/03 04:57:28;;;;;;;;;5.25;2.00;;;;;12.13;72.74;101162.13;5019239;28;45431;-79
2022/01/03 04:59:53;;;;;;;;;9.00;3.50;;;;;12.17;72.44;101178.00;5019245;28;45310;-79
2022/01/03 05:02:19;;;;;;;;;3.00;3.00;;;;;12.06;73.10;101149.75;5019401;28;45411;-78
2022/01/03 05:04:45;;;;;;;;;2.75;1.75;;;;;12.16;72.95;101156.84;5018337;28;46807;-78
2022/01/03 05:07:10;;;;;;;;;7.25;4.00;;;;;11.98;72.48;101133.84;5018722;28;45333;-78
2022/01/03 05:09:35;;;;;;;;;2.50;2.50;;;;;12.13;73.09;101157.72;5018972;28;45365;-78
2022/01/03 05:12:02;;;;;;;;;2.00;2.00;;;;;12.14;72.53;101154.22;5018908;28;45292;-75
2022/01/03 05:14:27;;;;;;;;;4.00;3.00;;;;;12.03;72.92;101126.84;5018802;28;45342;-80
2022/01/03 05:16:53;;;;;;;;;5.00;3.75;;;;;12.10;72.27;101141.88;5017656;28;45515;-80
2022/01/03 05:19:18;;;;;;;;;8.00;1.00;;;;;11.90;72.43;101106.47;5019308;28;45382;-80
2022/01/03 05:21:46;;;;;;;;;3.00;2.00;;;;;12.04;73.08;101128.59;5018465;28;45550;-78
2022/01/03 05:24:12;;;;;;;;;1.25;0.00;;;;;12.06;72.57;101137.41;5018992;28;46217;-80
2022/01/03 05:26:37;;;;;;;;;2.50;2.25;;;;;12.03;72.78;101131.25;5017502;28;45324;-76
2022/01/03 05:29:03;;;;;;;;;4.00;3.75;;;;;12.17;72.67;101156.88;5018977;28;45442;-76
2022/01/03 05:31:28;;;;;;;;;3.00;2.50;;;;;12.15;72.92;101160.38;5018943;28;45461;-79
2022/01/03 05:33:54;;;;;;;;;1.50;1.00;;;;;12.14;72.91;101155.97;5018569;28;46711;-80
2022/01/03 05:36:20;;;;;;;;;6.50;3.25;;;;;12.01;72.95;101131.25;5018779;28;45427;-78
2022/01/03 05:38:45;;;;;;;;;3.00;2.00;;;;;12.07;72.81;101147.09;5022225;28;45718;-77
2022/01/03 05:41:11;;;;;;;;;4.00;3.75;;;;;12.11;73.57;101148.03;5024797;28;45482;-79
2022/01/03 05:43:37;;;;;;;;;2.75;1.25;;;;;11.93;73.09;101120.59;5000660;28;47462;-78
2022/01/03 05:46:03;;;;;;;;;5.75;3.50;;;;;12.11;73.53;101158.59;5018124;28;45339;-79
2022/01/03 05:48:28;;;;;;;;;4.75;3.75;;;;;11.91;73.46;101125.00;5018520;28;45427;-78
2022/01/03 05:50:54;;;;;;;;;5.50;5.50;;;;;12.07;73.18;101146.22;5018070;28;45432;-77
2022/01/03 05:53:19;;;;;;;;;4.00;2.00;;;;;12.10;73.90;101160.34;5018314;28;46063;-78
2022/01/03 05:55:46;;;;;;;;;5.75;2.00;;;;;12.11;72.80;101146.28;5018086;28;45459;-79
2022/01/03 05:58:13;;;;;;;;;3.00;1.00;;;;;12.12;73.03;101163.00;5017919;28;45248;-79
2022/01/03 06:00:39;;;;;;;;;5.25;3.00;;;;;11.95;73.70;101139.97;5017954;28;45558;-76
2022/01/03 06:03:04;;;;;;;;;3.75;2.75;;;;;12.10;73.52;101160.34;5017921;28;47046;-78
2022/01/03 06:05:42;;;;;;;;;2.00;2.00;;;;;12.02;73.55;101147.97;5018297;28;45367;-77
2022/01/03 06:08:08;;;;;;;;;2.25;1.00;;;;;11.96;73.46;101133.81;5017809;28;45304;-80
2022/01/03 06:10:39;;;;;;;;;8.50;3.50;;;;;12.08;72.80;101156.78;5017801;28;45426;-79
2022/01/03 06:13:04;;;;;;;;;3.75;2.50;;;;;12.00;73.88;101140.00;5017967;28;46253;-79
2022/01/03 06:15:30;;;;;;;;;2.75;2.75;;;;;11.93;73.19;101131.16;5017846;28;45342;-78
2022/01/03 06:17:55;;;;;;;;;6.25;2.25;;;;;12.03;74.10;101155.91;5017549;28;45383;-78
2022/01/03 06:20:21;;;;;;;;;5.00;3.25;;;;;11.96;74.30;101148.78;5017473;28;45411;-78
2022/01/03 06:22:46;;;;;;;;;2.75;1.00;;;;;11.89;73.33;101124.06;5017590;28;46367;-77
2022/01/03 06:25:12;;;;;;;;;3.00;3.00;;;;;12.01;73.85;101160.28;5017686;28;45375;-78
2022/01/03 06:27:39;;;;;;;;;9.50;3.25;;;;;11.98;73.71;101139.13;4999576;28;45501;-78
2022/01/03 06:30:06;;;;;;;;;5.00;3.25;;;;;11.98;73.65;101133.84;4999555;28;45557;-81
2022/01/03 06:32:32;;;;;;;;;5.25;3.00;;;;;12.00;73.72;101140.00;5017532;28;45371;-78
2022/01/03 06:34:57;;;;;;;;;2.25;1.75;;;;;11.66;74.09;101075.47;5017317;28;45254;-78
2022/01/03 06:37:23;;;;;;;;;3.50;3.50;;;;;11.87;74.26;101107.34;5017245;28;45508;-78
2022/01/03 06:39:48;;;;;;;;;4.50;3.00;;;;;12.02;73.93;101129.47;5017437;28;45143;-76
2022/01/03 06:42:14;;;;;;;;;7.50;3.00;;;;;12.05;73.29;101137.41;5017173;28;45457;-79
2022/01/03 06:44:39;;;;;;;;;3.50;1.75;;;;;11.84;73.56;101102.06;5016396;28;45920;-76
2022/01/03 06:47:05;;;;;;;;;6.00;3.50;;;;;11.96;73.67;101111.81;5016881;28;45336;-78
2022/01/03 06:49:30;;;;;;;;;5.25;1.00;;;;;11.89;74.05;101102.97;4995395;28;45796;-77
2022/01/03 06:51:56;;;;;;;;;7.25;4.00;;;;;11.87;73.92;101099.44;4998157;28;47274;-76
2022/01/03 06:54:21;;;;;;;;;4.75;3.75;;;;;11.79;74.24;101090.53;5013996;28;45458;-82
2022/01/03 06:56:47;;;;;;;;;6.75;2.75;;;;;11.85;73.69;101106.47;5016019;28;45344;-79
2022/01/03 06:59:12;;;;;;;;;10.50;2.25;;;;;11.61;73.94;101056.94;5015567;28;45403;-82
2022/01/03 07:01:39;;;;;;;;;9.25;2.25;;;;;12.05;73.97;101135.66;4997662;28;46336;-79
2022/01/03 07:04:05;;;;;;;;;6.75;2.25;;;;;12.01;73.72;101125.97;5015687;28;45225;-78
2022/01/03 07:06:31;;;;;;;;;4.50;1.50;;;;;12.05;74.37;101129.50;5015960;28;45353;-79
2022/01/03 07:08:57;;;;;;;;;2.25;1.75;;;;;12.06;73.52;101128.63;5015264;28;45573;-80
2022/01/03 07:11:23;;;;;;;;;5.25;3.75;;;;;12.01;74.15;101127.72;5015701;28;46384;-76
2022/01/03 07:13:52;;;;;;;;;6.75;3.25;;;;;11.87;73.96;101091.50;5015570;28;45475;-78
2022/01/03 07:19:06;;;;;;;;;4.75;2.00;;;;;12.01;73.63;101118.03;5015178;28;45308;-79
2022/01/03 07:21:33;;;;;;;;;5.25;2.00;;;;;11.85;74.60;101084.47;4997546;28;47373;-80
2022/01/03 07:23:59;;;;;;;;;6.00;2.75;;;;;11.71;74.49;101064.06;5014977;28;45388;-77
2022/01/03 07:26:26;;;;;;;;;5.00;2.25;;;;;11.73;73.97;101060.59;5015257;28;45474;-80
2022/01/03 07:28:52;;;;;;;;;1.75;1.75;;;;;11.98;74.33;101105.66;5016760;28;45447;-81
2022/01/03 07:31:17;;;;;;;;;8.00;4.00;;;;;11.98;73.60;101115.34;5016645;28;46578;-85
2022/01/03 07:33:43;;;;;;;;;5.25;3.00;;;;;11.97;74.00;101111.81;5015688;28;45277;-79
2022/01/03 07:36:09;;;;;;;;;7.50;2.00;;;;;11.64;74.33;101049.09;5015412;28;45449;-82
2022/01/03 07:38:35;;;;;;;;;7.00;4.75;;;;;11.99;74.10;101110.06;5017669;28;45324;-77
2022/01/03 07:41:03;;;;;;;;;2.50;1.50;;;;;11.83;73.92;101076.53;5016233;28;46281;-83
2022/01/03 07:43:29;;;;;;;;;3.25;2.00;;;;;11.94;74.76;101097.72;5016695;28;45507;-77
2022/01/03 07:45:54;;;;;;;;;4.25;2.00;;;;;11.95;74.07;101110.94;4999885;28;45556;-81
2022/01/03 07:48:19;;;;;;;;;4.00;2.00;;;;;11.92;74.24;101110.94;5015315;28;45455;-76
2022/01/03 07:50:45;;;;;;;;;3.25;2.00;;;;;11.82;74.39;101087.97;5018537;28;46267;-79
2022/01/03 07:53:10;;;;;;;;;3.00;0.75;;;;;11.80;74.57;101076.50;5018919;28;45453;-75
2022/01/03 07:55:35;;;;;;;;;3.25;3.00;;;;;11.88;73.82;101090.63;5018421;28;45976;-76
2022/01/03 07:58:03;;;;;;;;;2.75;2.50;;;;;11.94;74.55;101090.69;5019041;28;45364;-75
2022/01/03 08:00:28;;;;;;;;;6.50;3.25;;;;;11.86;74.06;101075.66;5019134;28;46221;-75
2022/01/03 08:02:54;;;;;;;;;2.25;2.25;;;;;11.98;74.85;101088.94;5017145;28;45317;-73
2022/01/03 08:05:19;;;;;;;;;3.00;2.00;;;;;12.01;74.16;101085.47;5019118;28;45466;-73
2022/01/03 08:07:45;;;;;;;;;2.50;1.75;;;;;11.94;74.30;101069.56;5019826;28;45212;-72
2022/01/03 08:10:12;;;;;;;;;8.25;6.25;;;;;11.99;74.81;101077.50;5002662;28;45428;-72
2022/01/03 08:12:39;;;;;;;;;3.25;2.25;;;;;11.87;75.13;101057.19;5005396;28;45404;-71
2022/01/03 08:15:06;;;;;;;;;9.00;4.25;;;;;11.86;75.39;101044.00;5019734;28;45445;-74
2022/01/03 08:17:33;;;;;;;;;4.50;3.25;;;;;11.99;74.80;101083.66;5000460;28;45587;-77
2022/01/03 08:19:58;;;;;;;;;2.25;2.25;;;;;11.92;74.79;101071.31;5016299;28;46391;-71
2022/01/03 08:22:23;;;;;;;;;5.75;3.25;;;;;11.98;75.13;101081.03;4999313;28;45516;-73
2022/01/03 08:24:49;;;;;;;;;8.25;3.00;;;;;11.87;75.83;101053.66;5007253;28;45290;-69
2022/01/03 08:27:15;;;;;;;;;5.25;3.00;;;;;11.97;75.22;101059.03;5019646;28;45320;-70
2022/01/03 08:29:40;;;;;;;;;6.50;2.00;;;;;11.93;75.69;101059.88;5018728;28;45509;-69
2022/01/03 08:32:06;;;;;;;;;6.25;4.00;;;;;11.94;75.90;101055.50;5018155;28;45438;-72
2022/01/03 08:34:32;;;;;;;;;5.25;2.00;;;;;12.02;75.30;101059.06;5019658;28;45328;-73
2022/01/03 08:37:00;;;;;;;;;7.00;3.00;;;;;12.02;75.77;101051.16;5019323;28;45336;-72
2022/01/03 08:39:26;;;;;;;;;5.50;4.00;;;;;12.01;75.40;101053.78;5019247;28;45360;-71
2022/01/03 08:41:51;;;;;;;;;7.75;3.50;;;;;11.99;76.13;101051.97;5018531;28;45392;-73
2022/01/03 08:44:17;;;;;;;;;2.25;2.00;;;;;12.07;75.79;101059.97;5019299;28;45237;-73
2022/01/03 08:46:42;;;;;;;;;2.50;2.00;;;;;12.03;75.92;101050.28;5019232;28;45328;-73
2022/01/03 08:49:07;;;;;;;;;4.00;2.00;;;;;12.06;75.46;101058.19;5017306;28;45638;-73
2022/01/03 08:51:33;;;;;;;;;6.50;3.25;;;;;12.02;76.18;101044.97;5018254;28;45321;-75
2022/01/03 08:53:59;;;;;;;;;5.75;4.25;;;;;12.12;76.25;101057.38;5018579;28;45431;-73
2022/01/03 08:56:24;;;;;;;;;2.25;2.25;;;;;12.09;74.82;101042.38;5017812;28;45523;-73
2022/01/03 08:58:50;;;;;;;;;6.00;4.00;;;;;12.12;75.74;101047.69;5018906;28;45309;-72
2022/01/03 09:01:15;;;;;;;;;3.50;1.75;;;;;12.08;76.11;101050.28;5017983;28;45324;-72
2022/01/03 09:03:41;;;;;;;;;5.25;3.00;;;;;12.06;75.80;101049.41;5018811;28;45395;-74
2022/01/03 09:06:06;;;;;;;;;7.75;4.00;;;;;12.04;76.14;101059.94;5019222;28;45219;-72
2022/01/03 09:08:32;;;;;;;;;5.00;3.25;;;;;12.06;76.05;101062.59;5018654;28;46487;-74
2022/01/03 09:10:57;;;;;;;;;11.25;6.75;;;;;12.05;76.46;101048.50;5018779;28;45232;-73
2022/01/03 09:13:23;;;;;;;;;7.00;4.75;;;;;12.07;76.26;101051.16;5011753;28;45266;-72
2022/01/03 09:15:50;;;;;;;;;3.75;2.75;;;;;11.98;75.67;101036.13;5003163;28;45613;-74
2022/01/03 09:18:19;;;;;;;;;2.00;1.50;;;;;12.01;75.70;101033.53;5005620;28;46197;-72
2022/01/03 09:20:45;;;;;;;;;4.75;2.00;;;;;12.13;76.00;101053.84;5018370;28;45549;-73
2022/01/03 09:23:25;;;;;;;;;4.75;3.75;;;;;12.17;75.76;101047.69;5017868;28;45552;-74
2022/01/03 09:28:56;;;;;;;;;4.50;2.50;;;;;12.13;75.46;101035.38;5019349;28;45834;-73
2022/01/03 09:31:27;;;;;;;;;10.75;5.25;;;;;12.16;76.17;101030.09;5001662;28;45389;-72
2022/01/03 09:33:55;;;;;;;;;4.00;2.00;;;;;12.23;75.42;101047.75;5008137;28;46074;-73
2022/01/03 09:36:21;;;;;;;;;5.25;5.25;;;;;12.18;75.06;101029.22;5006064;28;45351;-73
2022/01/03 09:38:46;;;;;;;;;12.25;3.25;;;;;12.30;75.39;101046.91;5016728;28;45404;-73
2022/01/03 09:41:13;;;;;;;;;6.00;1.75;;;;;12.34;75.49;101042.50;5007312;28;45406;-76
2022/01/03 09:44:01;;;;;;;;;5.00;2.00;;;;;12.36;75.08;101019.63;5005332;28;45525;-72
2022/01/03 09:46:38;;;;;;;;;2.50;2.50;;;;;12.18;75.11;100996.63;5018449;28;45305;-75
2022/01/03 09:49:07;;;;;;;;;6.00;4.25;;;;;12.38;75.05;101036.38;5004276;28;45353;-72
2022/01/03 09:51:33;;;;;;;;;5.75;2.75;;;;;12.39;74.51;101038.16;5001546;28;45308;-72
2022/01/03 09:54:10;;;;;;;;;5.00;4.00;;;;;12.40;75.20;101030.22;5006899;28;45348;-71
2022/01/03 09:56:38;;;;;;;;;3.25;3.00;;;;;12.47;74.39;101041.69;5018363;28;45543;-71
2022/01/03 09:59:05;;;;;;;;;3.00;2.50;;;;;12.44;74.41;101023.19;5017592;28;46553;-72
2022/01/03 10:01:31;;;;;;;;;3.75;2.25;;;;;12.50;73.99;101037.31;5017934;28;45353;-71
2022/01/03 10:03:56;;;;;;;;;6.50;4.75;;;;;12.40;74.85;101013.50;5017791;28;45408;-72
2022/01/03 10:06:24;;;;;;;;;2.50;1.50;;;;;12.50;74.07;101025.88;5018302;28;45301;-71
2022/01/03 10:08:50;;;;;;;;;6.25;4.50;;;;;12.57;74.25;101032.06;5017833;28;47139;-73
2022/01/03 10:11:16;;;;;;;;;7.00;3.00;;;;;12.57;74.49;101029.44;4999437;28;45337;-73
2022/01/03 10:13:41;;;;;;;;;6.50;3.75;;;;;12.61;73.74;101023.25;5016418;28;45222;-74
2022/01/03 10:16:07;;;;;;;;;13.75;2.25;;;;;12.62;74.21;101022.38;4999062;28;45369;-75
2022/01/03 10:18:33;;;;;;;;;6.75;3.50;;;;;12.65;73.94;101025.91;5005657;28;46388;-73
2022/01/03 10:21:04;;;;;;;;;6.25;3.75;;;;;12.63;73.99;101017.09;5017562;28;45387;-73
2022/01/03 10:23:29;;;;;;;;;4.25;2.50;;;;;12.58;73.40;101017.97;5006788;28;45490;-73
2022/01/03 10:26:14;;;;;;;;;8.00;4.75;;;;;12.60;73.61;101008.28;4997570;28;45638;-76
2022/01/03 10:28:40;;;;;;;;;8.50;6.00;;;;;12.50;73.68;100989.75;4999820;28;46761;-74
2022/01/03 10:31:13;;;;;;;;;1.00;1.00;;;;;12.64;73.20;101010.91;5016886;28;45497;-72
2022/01/03 10:33:39;;;;;;;;;5.75;3.75;;;;;12.55;73.17;100990.63;5016591;28;45435;-74
2022/01/03 10:36:10;;;;;;;;;3.00;3.00;;;;;12.61;73.80;100997.72;5016721;28;45233;-73
2022/01/03 10:38:44;;;;;;;;;1.75;1.75;;;;;12.42;73.56;100980.91;5016727;28;45427;-74
2022/01/03 10:41:16;;;;;;;;;2.75;1.75;;;;;12.49;73.13;100980.06;5017434;28;45549;-73
2022/01/03 10:43:43;;;;;;;;;3.75;3.75;;;;;12.67;73.40;101007.44;5017528;28;45285;-72
2022/01/03 10:46:33;;;;;;;;;3.00;2.00;;;;;12.62;73.29;100988.00;5016492;28;45724;-74
2022/01/03 10:49:13;;;;;;;;;2.75;1.00;;;;;12.64;73.34;100992.41;4936945;28;45417;-74
2022/01/03 10:51:40;;;;;;;;;2.25;2.00;;;;;12.63;72.45;100998.59;4936739;28;45303;-75
2022/01/03 10:54:10;;;;;;;;;8.75;2.00;;;;;12.56;72.92;100973.00;4936840;28;45383;-75
2022/01/03 10:56:44;;;;;;;;;3.75;3.75;;;;;12.64;72.76;100968.63;4937444;28;45301;-74
2022/01/03 10:59:15;;;;;;;;;2.00;1.00;;;;;12.73;73.00;100988.91;4936711;28;47135;-73
2022/01/03 11:02:03;;;;;;;;;10.00;4.25;;;;;12.71;73.10;100964.25;4936714;28;45455;-74
2022/01/03 11:04:58;;;;;;;;;4.00;4.00;;;;;12.75;72.77;100960.72;4920392;28;45456;-73
2022/01/03 11:13:10;;;;;;;;;4.00;3.75;;;;;12.66;73.02;100945.75;4919403;28;45620;-75
2022/01/03 11:15:37;;;;;;;;;7.50;2.00;;;;;12.77;72.38;100940.50;4917558;28;45463;-76
2022/01/03 11:18:19;;;;;;;;;7.00;3.00;;;;;12.80;72.14;100951.06;4917485;28;45531;-75
2022/01/03 11:21:00;;;;;;;;;7.50;2.00;;;;;12.79;72.37;100936.97;4928080;28;46634;-74
2022/01/03 11:23:25;;;;;;;;;1.25;0.50;;;;;12.84;71.88;100939.59;4936469;28;45402;-75
2022/01/03 11:25:52;;;;;;;;;4.00;1.75;;;;;12.92;71.70;100935.19;4976227;28;45412;-73
2022/01/03 11:28:17;;;;;;;;;5.00;3.00;;;;;12.84;71.83;100908.78;5020889;28;45261;-76
2022/01/03 11:30:44;;;;;;;;;2.75;2.75;;;;;12.91;71.80;100922.88;5020315;28;45366;-73
2022/01/03 11:33:10;;;;;;;;;8.25;2.75;;;;;12.81;71.53;100905.22;5020601;28;45368;-75
2022/01/03 11:35:38;;;;;;;;;8.00;4.00;;;;;12.75;71.94;100884.97;5020412;28;45443;-73
2022/01/03 11:38:06;;;;;;;;;6.00;3.75;;;;;12.87;72.05;100885.84;5020368;28;45312;-73
2022/01/03 11:40:32;;;;;;;;;8.25;3.00;;;;;12.87;71.50;100899.97;5020176;28;46529;-77